SBOSBO GIG / SBGL
Speedbird OnlineSpeedbird Online GIG / SBGL

Rio Galeão – Tom Jobim International Airport
19:36 25.6°C

Location Rio De Janeiro, Brazil
Latitude: -22.8099994659
Longitude: -43.2505569458
Web Wikipedia
Altitude 9 Meter / 28 Feet
Distance 9,283 KM / 5,768 Miles
from London.
Time Zone UTC -3 hours (America/Sao_Paulo)
Codes IATA: GIG
ICAO: SBGL
Currency £1 equals BRL 6.31
Runways
RunwayLength (m)Surface
104000Concrete
153180Asphalt
284000Concrete
333180Asphalt
Radio
TypeDescriptionFrequency
APPRIO APP119.35
ATISATIS127.6
CLDCLNC DEL121
GNDGND121.65
OPSOPS122.5
TWRTWR118
Live ATC
METAR SBGL 081400Z 05003KT 9999 FEW008 BKN040 BKN100 25/22 Q1014
TAF TAF SBGL 080814Z 0812/0918 33005KT 7000 SCT012 TX27/0816Z TN23/0908Z BECMG 0813/0815 14010KT PROB30 0815/0818 BKN010 TEMPO 0818/0902 3500 TSRA BKN010 FEW025CB BECMG 0902/0904 28005KT BECMG 0913/0915 15010KT RMK PHI
Weather As Of 08 Feb 2023 19:36
Description Overcast clouds
Wind 17 km/h from South (180°)
Cloud Cover 100%
Precipitation Rain: none, Snow: none
Sunrise 05:37
Sunset 18:36
Lounges American Airlines Admirals Club, Terminal 2
Rotations During the last 90 days there were
59 flights from LHR
62 flights to LHR



Support Speedbird Online

© 2017-2023 Speedbird Online